Time;durP1;ratioP1;P1;durP2;ratioP2;P2;SDS_P1;SDS_P2;PMS_P1;PMS_P2;Temp;Humidity;BMP_temperature;BMP_pressure;BME280_temperature;BME280_humidity;BME280_pressure;Samples;Min_cycle;Max_cycle;Signal;HPM_P1;HPM_P2
2022/04/05 00:00:05;;;;;;;7.20;6.60;;;7.50;1.00;;;;;;5067447;28;20184;-56
2022/04/05 00:02:30;;;;;;;9.60;8.20;;;7.50;1.00;;;;;;5066234;28;20665;-55
2022/04/05 00:04:56;;;;;;;8.80;8.07;;;7.40;1.00;;;;;;5068311;28;20456;-56
2022/04/05 00:07:21;;;;;;;9.03;8.17;;;7.30;1.00;;;;;;5068599;28;20198;-55
2022/04/05 00:09:47;;;;;;;9.00;8.17;;;7.30;1.00;;;;;;5069637;28;20215;-55
2022/04/05 00:12:13;;;;;;;10.10;9.20;;;7.20;1.00;;;;;;5068706;28;20179;-57
2022/04/05 00:14:39;;;;;;;8.07;7.33;;;7.20;1.00;;;;;;5070280;28;20357;-56
2022/04/05 00:17:04;;;;;;;7.93;7.13;;;7.20;1.00;;;;;;5066699;28;20525;-56
2022/04/05 00:19:30;;;;;;;9.23;8.43;;;7.20;1.00;;;;;;5067979;28;20171;-56
2022/04/05 00:21:56;;;;;;;9.93;9.03;;;7.20;1.00;;;;;;5050915;28;20190;-56
2022/04/05 00:24:22;;;;;;;10.50;9.43;;;7.10;1.00;;;;;;5066172;28;20804;-56
2022/04/05 00:26:47;;;;;;;10.37;9.43;;;7.10;1.00;;;;;;5065632;28;20250;-55
2022/04/05 00:29:13;;;;;;;9.57;8.67;;;7.00;1.00;;;;;;5064594;28;20187;-55
2022/04/05 00:31:38;;;;;;;11.10;10.00;;;6.80;1.00;;;;;;5064765;28;20187;-54
2022/04/05 00:34:04;;;;;;;10.07;9.20;;;6.80;1.00;;;;;;5066679;28;20219;-55
2022/04/05 00:36:30;;;;;;;12.30;11.10;;;6.80;1.00;;;;;;5065449;28;20210;-54
2022/04/05 00:38:55;;;;;;;9.90;9.03;;;6.70;1.00;;;;;;5065703;28;20484;-55
2022/04/05 00:41:21;;;;;;;11.13;10.13;;;6.70;1.00;;;;;;5064967;28;20199;-54
2022/04/05 00:43:47;;;;;;;12.03;10.83;;;6.60;1.00;;;;;;5064772;28;20180;-55
2022/04/05 00:46:12;;;;;;;12.00;10.97;;;6.70;1.00;;;;;;5065970;28;20179;-55
2022/04/05 00:48:55;;;;;;;10.93;9.90;;;6.70;1.00;;;;;;5067452;28;20211;-54
2022/04/05 00:51:22;;;;;;;12.33;11.13;;;6.60;1.00;;;;;;5064561;28;20180;-55
2022/04/05 00:53:51;;;;;;;12.93;10.40;;;6.60;1.00;;;;;;5065190;28;20970;-53
2022/04/05 00:56:18;;;;;;;12.17;10.93;;;6.60;1.00;;;;;;5059397;28;20464;-56
2022/04/05 00:58:47;;;;;;;13.87;12.03;;;6.60;1.00;;;;;;5065052;28;20594;-54
2022/04/05 01:01:18;;;;;;;13.30;12.10;;;6.70;1.00;;;;;;5062760;28;20969;-55
2022/04/05 01:03:51;;;;;;;12.43;11.23;;;9.30;1.00;;;;;;5065583;28;20433;-56
2022/04/05 01:06:24;;;;;;;13.60;12.40;;;6.60;1.00;;;;;;5062973;28;20438;-55
2022/04/05 01:08:50;;;;;;;13.80;12.40;;;6.60;1.00;;;;;;5065409;28;20474;-56
2022/04/05 01:11:16;;;;;;;12.80;11.50;;;6.50;1.00;;;;;;5062066;28;21166;-54
2022/04/05 01:13:43;;;;;;;12.80;11.53;;;6.60;1.00;;;;;;5061483;28;20473;-55
2022/04/05 01:16:10;;;;;;;14.03;12.63;;;6.50;1.00;;;;;;5065412;28;21853;-54
2022/04/05 01:18:36;;;;;;;13.47;12.07;;;6.60;1.00;;;;;;5068194;28;20505;-55
2022/04/05 01:21:05;;;;;;;12.57;11.30;;;6.60;1.00;;;;;;5061559;28;20510;-54
2022/04/05 01:23:31;;;;;;;12.60;11.30;;;6.70;1.00;;;;;;5061883;28;20458;-55
2022/04/05 01:25:56;;;;;;;13.63;12.33;;;6.70;1.00;;;;;;5064549;28;20495;-53
2022/04/05 01:28:23;;;;;;;13.67;11.83;;;6.70;1.00;;;;;;5064206;28;20206;-55
2022/04/05 01:30:49;;;;;;;12.73;11.43;;;6.60;1.00;;;;;;5061603;28;20454;-55
2022/04/05 01:33:15;;;;;;;13.50;12.10;;;6.70;1.00;;;;;;5063460;28;20465;-55
2022/04/05 01:35:42;;;;;;;11.73;10.53;;;6.70;1.00;;;;;;5066880;28;20494;-55
2022/04/05 01:38:08;;;;;;;14.00;11.60;;;6.60;1.00;;;;;;5066535;28;20201;-55
2022/04/05 01:40:33;;;;;;;13.60;12.13;;;6.70;1.00;;;;;;5063769;28;20480;-53
2022/04/05 01:42:59;;;;;;;13.73;12.43;;;;;;;;;;5066502;28;20472;-56
2022/04/05 01:45:25;;;;;;;12.80;11.40;;;6.70;1.00;;;;;;5069681;28;20183;-56
2022/04/05 01:47:51;;;;;;;13.17;11.80;;;6.80;1.00;;;;;;5065399;28;20465;-57
2022/04/05 01:50:17;;;;;;;13.40;11.93;;;;;;;;;;5061546;28;20308;-56
2022/04/05 01:52:42;;;;;;;13.90;11.70;;;6.60;1.00;;;;;;5068198;28;20224;-54
2022/04/05 01:55:08;;;;;;;11.97;10.77;;;6.50;1.00;;;;;;5067698;28;20490;-54
2022/04/05 01:57:34;;;;;;;12.23;11.03;;;6.60;1.00;;;;;;5065728;28;20192;-55
2022/04/05 02:00:02;;;;;;;11.80;10.60;;;;;;;;;;5045296;28;20450;-54
2022/04/05 02:02:27;;;;;;;12.47;10.80;;;6.50;1.00;;;;;;5067161;28;20184;-55
2022/04/05 02:04:53;;;;;;;11.77;10.57;;;6.60;1.00;;;;;;5066703;28;20465;-55
2022/04/05 02:07:19;;;;;;;12.20;11.00;;;6.60;1.00;;;;;;5070470;28;20180;-56
2022/04/05 02:09:47;;;;;;;11.90;10.70;;;6.60;1.00;;;;;;5069768;28;20215;-55
2022/04/05 02:12:13;;;;;;;12.37;11.10;;;6.60;1.00;;;;;;5071122;28;20540;-55
2022/04/05 02:14:39;;;;;;;11.30;10.20;;;6.60;1.00;;;;;;5069249;28;20625;-56
2022/04/05 02:17:08;;;;;;;11.13;10.03;;;6.60;1.00;;;;;;5071362;28;20195;-54
2022/04/05 02:19:34;;;;;;;14.17;10.60;;;6.60;1.00;;;;;;5070890;28;20449;-55
2022/04/05 02:22:00;;;;;;;10.90;9.80;;;6.60;1.00;;;;;;5071187;28;20857;-57
2022/04/05 02:24:26;;;;;;;11.80;10.60;;;6.60;1.00;;;;;;5071328;28;20434;-55
2022/04/05 02:26:51;;;;;;;10.03;8.73;;;6.60;1.00;;;;;;5064826;28;20882;-55
2022/04/05 02:29:17;;;;;;;10.00;9.00;;;6.70;1.00;;;;;;5068927;28;20183;-55
2022/04/05 02:31:42;;;;;;;10.23;9.20;;;6.70;1.00;;;;;;5070049;28;20184;-55
2022/04/05 02:34:09;;;;;;;9.73;8.83;;;6.70;1.00;;;;;;5068528;28;20316;-55
2022/04/05 02:36:35;;;;;;;10.53;8.97;;;6.70;1.00;;;;;;5067710;28;20600;-55
2022/04/05 02:39:00;;;;;;;10.67;9.57;;;6.70;1.00;;;;;;5068312;28;20846;-55
2022/04/05 02:41:27;;;;;;;9.33;8.40;;;6.70;1.00;;;;;;5069337;28;20196;-56
2022/04/05 02:43:53;;;;;;;8.70;7.90;;;6.80;1.00;;;;;;5065662;28;20187;-55
2022/04/05 02:46:19;;;;;;;8.87;7.97;;;6.70;1.00;;;;;;5070224;28;20442;-54
2022/04/05 02:48:46;;;;;;;9.70;8.27;;;;;;;;;;5066802;28;20446;-54
2022/04/05 02:51:12;;;;;;;9.83;8.93;;;6.70;1.00;;;;;;5069197;28;20446;-55
2022/04/05 02:53:39;;;;;;;10.93;9.83;;;6.70;1.00;;;;;;5069423;28;20795;-54
2022/04/05 02:56:08;;;;;;;9.83;8.90;;;6.60;1.00;;;;;;5067822;28;20454;-55
2022/04/05 02:58:36;;;;;;;9.70;8.70;;;6.70;1.00;;;;;;5065992;28;20430;-54
2022/04/05 03:01:05;;;;;;;8.80;7.90;;;6.70;1.00;;;;;;5046879;28;20472;-55
2022/04/05 03:03:30;;;;;;;8.53;7.40;;;6.60;1.00;;;;;;5067969;28;20438;-54
2022/04/05 03:05:56;;;;;;;9.90;7.70;;;6.50;1.00;;;;;;5063617;28;20445;-55
2022/04/05 03:08:22;;;;;;;8.43;7.63;;;6.50;1.00;;;;;;5065940;28;20483;-54
2022/04/05 03:10:48;;;;;;;9.03;8.13;;;;;;;;;;5069709;28;20191;-56
2022/04/05 03:13:14;;;;;;;9.10;8.20;;;6.60;1.00;;;;;;5064657;28;20649;-54
2022/04/05 03:15:39;;;;;;;8.77;7.87;;;6.60;1.00;;;;;;5064443;28;20441;-55
2022/04/05 03:18:05;;;;;;;8.97;7.20;;;6.60;1.00;;;;;;5065716;28;20756;-55
2022/04/05 03:20:31;;;;;;;8.20;7.40;;;6.50;1.00;;;;;;5064197;28;20539;-56
2022/04/05 03:22:59;;;;;;;9.47;8.03;;;6.50;1.00;;;;;;5067092;28;20209;-55
2022/04/05 03:25:24;;;;;;;8.67;7.50;;;6.40;1.00;;;;;;5062833;28;20803;-57
2022/04/05 03:27:50;;;;;;;7.90;7.20;;;6.50;1.00;;;;;;5060649;28;20437;-54
2022/04/05 03:30:17;;;;;;;8.30;7.50;;;6.50;1.00;;;;;;5066956;28;20190;-55
2022/04/05 03:32:43;;;;;;;7.30;6.60;;;6.30;1.00;;;;;;5065580;28;20831;-55
2022/04/05 03:35:09;;;;;;;7.90;6.80;;;6.40;1.00;;;;;;5062509;28;20469;-55
2022/04/05 03:37:36;;;;;;;6.90;6.13;;;6.60;1.00;;;;;;5065514;28;20586;-57
2022/04/05 03:40:03;;;;;;;7.20;6.50;;;6.60;1.00;;;;;;5069571;28;20433;-53
2022/04/05 03:42:28;;;;;;;7.70;7.00;;;6.60;1.00;;;;;;5064401;28;20452;-55
2022/04/05 03:44:54;;;;;;;7.90;7.17;;;6.70;1.00;;;;;;5070730;28;20437;-54
2022/04/05 03:47:19;;;;;;;6.50;5.90;;;6.70;1.00;;;;;;5067696;28;20222;-55
2022/04/05 03:49:46;;;;;;;7.13;6.43;;;6.70;1.00;;;;;;5071608;28;20262;-55
2022/04/05 03:52:12;;;;;;;6.87;6.27;;;6.80;1.00;;;;;;5066783;28;20590;-54
2022/04/05 03:54:37;;;;;;;7.47;6.87;;;6.70;1.00;;;;;;5071304;28;20504;-56
2022/04/05 03:57:03;;;;;;;7.13;6.43;;;6.70;1.00;;;;;;5071267;28;20255;-55
2022/04/05 03:59:29;;;;;;;7.07;6.47;;;6.70;1.00;;;;;;5070031;28;20202;-55
2022/04/05 04:01:54;;;;;;;7.20;6.43;;;6.70;1.00;;;;;;5069936;28;20493;-57
2022/04/05 04:04:20;;;;;;;7.70;7.00;;;6.80;1.00;;;;;;5070090;28;20222;-57
2022/04/05 04:06:45;;;;;;;6.67;6.07;;;6.70;1.00;;;;;;5069039;28;20215;-56
2022/04/05 04:09:14;;;;;;;6.53;5.93;;;6.70;1.00;;;;;;5069748;28;20222;-57
2022/04/05 04:11:44;;;;;;;7.30;6.60;;;6.60;1.00;;;;;;5070936;28;20188;-55
2022/04/05 04:14:10;;;;;;;7.23;6.53;;;6.70;1.00;;;;;;5070462;28;20500;-55
2022/04/05 04:16:36;;;;;;;7.37;6.67;;;6.70;1.00;;;;;;5069538;28;20442;-55
2022/04/05 04:19:02;;;;;;;6.60;6.00;;;;;;;;;;5066319;28;20740;-57
2022/04/05 04:21:27;;;;;;;6.80;6.03;;;6.60;1.00;;;;;;5070372;28;20637;-55
2022/04/05 04:23:53;;;;;;;7.00;6.40;;;6.40;1.00;;;;;;5069271;28;20507;-54
2022/04/05 04:26:18;;;;;;;7.67;6.93;;;6.40;1.00;;;;;;5069641;28;20192;-55
2022/04/05 04:28:44;;;;;;;7.10;6.40;;;6.40;1.00;;;;;;5069665;28;20195;-56
2022/04/05 04:31:09;;;;;;;7.90;6.97;;;6.60;1.00;;;;;;5068860;28;20665;-57
2022/04/05 04:33:35;;;;;;;5.90;5.40;;;6.60;1.00;;;;;;5065804;28;20215;-57
2022/04/05 04:36:00;;;;;;;6.07;5.47;;;6.60;1.00;;;;;;5069829;28;20187;-56
2022/04/05 04:38:26;;;;;;;6.60;6.00;;;6.50;1.00;;;;;;5050476;28;20729;-55
2022/04/05 04:40:52;;;;;;;6.53;6.03;;;6.60;1.00;;;;;;5066197;28;20549;-57
2022/04/05 04:43:18;;;;;;;5.83;5.33;;;6.50;1.00;;;;;;5068810;28;20266;-57
2022/04/05 04:45:45;;;;;;;6.70;6.10;;;6.50;1.00;;;;;;5069150;28;20334;-58
2022/04/05 04:48:11;;;;;;;6.27;5.77;;;6.60;1.00;;;;;;5069232;28;20516;-56
2022/04/05 04:50:37;;;;;;;6.40;5.80;;;6.60;1.00;;;;;;5068949;28;20796;-56
2022/04/05 04:53:03;;;;;;;8.13;7.33;;;6.60;1.00;;;;;;5069900;28;20442;-57
2022/04/05 04:55:29;;;;;;;6.63;5.93;;;6.80;1.00;;;;;;5068424;28;20183;-56
2022/04/05 04:57:55;;;;;;;6.07;5.47;;;6.70;1.00;;;;;;5051439;28;20953;-56
2022/04/05 05:00:20;;;;;;;7.43;6.77;;;6.70;1.00;;;;;;5069161;28;20270;-57
2022/04/05 05:02:50;;;;;;;7.80;7.10;;;6.70;1.00;;;;;;5069060;28;20183;-58
2022/04/05 05:05:19;;;;;;;7.73;7.03;;;6.90;1.00;;;;;;5069174;28;20193;-57
2022/04/05 05:07:47;;;;;;;5.70;5.20;;;6.80;1.00;;;;;;5069473;28;21036;-56
2022/04/05 05:10:13;;;;;;;6.90;6.30;;;6.90;1.00;;;;;;5069113;28;20472;-57
2022/04/05 05:12:40;;;;;;;5.67;5.27;;;6.80;1.00;;;;;;5069494;28;20441;-56
2022/04/05 05:15:10;;;;;;;5.40;4.90;;;6.80;1.00;;;;;;5069278;28;20602;-56
2022/04/05 05:17:36;;;;;;;5.27;4.70;;;6.90;1.00;;;;;;5069176;28;20769;-56
2022/04/05 05:20:06;;;;;;;5.60;5.10;;;6.90;1.00;;;;;;5068650;28;20450;-57
2022/04/05 05:22:32;;;;;;;5.20;4.70;;;6.90;1.00;;;;;;5068205;28;20571;-58
2022/04/05 05:24:58;;;;;;;6.60;4.63;;;;;;;;;;5069184;28;20863;-56
2022/04/05 05:27:23;;;;;;;5.93;5.43;;;7.00;1.00;;;;;;5068431;28;20453;-56
2022/04/05 05:29:49;;;;;;;4.93;4.40;;;7.00;1.00;;;;;;5068067;28;20994;-58
2022/04/05 05:32:15;;;;;;;4.27;3.87;;;7.30;1.00;;;;;;5069274;28;20198;-57
2022/04/05 05:34:40;;;;;;;6.60;4.33;;;7.20;1.00;;;;;;5069064;28;20330;-57
2022/04/05 05:37:06;;;;;;;4.23;3.87;;;7.20;1.00;;;;;;5050011;28;20183;-57
2022/04/05 05:39:32;;;;;;;4.03;3.70;;;7.20;1.00;;;;;;5072330;28;20619;-57
2022/04/05 05:41:58;;;;;;;5.00;4.50;;;7.30;1.00;;;;;;5072268;28;20175;-58
2022/04/05 05:44:24;;;;;;;3.87;3.57;;;7.30;1.00;;;;;;5073718;28;20441;-57
2022/04/05 05:46:50;;;;;;;3.20;3.00;;;7.10;1.00;;;;;;5073300;28;20653;-58
2022/04/05 05:49:16;;;;;;;4.03;3.43;;;7.10;1.00;;;;;;5073375;28;20959;-57
2022/04/05 05:51:42;;;;;;;3.47;3.17;;;7.20;1.00;;;;;;5073002;28;20472;-56
2022/04/05 05:54:07;;;;;;;5.93;3.80;;;7.30;1.00;;;;;;5073540;28;20256;-57
2022/04/05 05:56:33;;;;;;;3.80;3.00;;;7.30;1.00;;;;;;5073019;28;20270;-56
2022/04/05 05:58:59;;;;;;;3.90;3.60;;;7.50;1.00;;;;;;5073697;28;20725;-56
2022/04/05 06:01:24;;;;;;;3.50;3.20;;;7.40;1.00;;;;;;5073242;28;20657;-56
2022/04/05 06:03:50;;;;;;;3.63;3.33;;;;;;;;;;5073449;28;20583;-57
2022/04/05 06:06:16;;;;;;;3.07;2.80;;;7.30;1.00;;;;;;5073107;28;20187;-56
2022/04/05 06:08:42;;;;;;;3.97;3.50;;;7.30;1.00;;;;;;5073040;28;20523;-56
2022/04/05 06:11:08;;;;;;;4.50;4.10;;;7.30;1.00;;;;;;5072864;28;20811;-58
2022/04/05 06:13:34;;;;;;;2.60;2.40;;;7.40;1.00;;;;;;5072681;28;20298;-58
2022/04/05 06:16:00;;;;;;;3.47;3.27;;;7.50;1.00;;;;;;5072644;28;20242;-56
2022/04/05 06:18:25;;;;;;;3.50;3.20;;;7.40;1.00;;;;;;5071934;28;20473;-57
2022/04/05 06:20:51;;;;;;;3.57;3.27;;;7.40;1.00;;;;;;5072493;28;20521;-57
2022/04/05 06:23:16;;;;;;;3.67;3.37;;;7.30;1.00;;;;;;5072323;28;20179;-57
2022/04/05 06:26:11;;;;;;;3.17;2.97;;;7.20;1.00;;;;;;5071712;28;20194;-56
2022/04/05 06:28:37;;;;;;;3.97;3.60;;;7.20;1.00;;;;;;5061341;28;20286;-55
2022/04/05 06:31:05;;;;;;;3.23;3.03;;;7.30;1.00;;;;;;5071550;28;20533;-58
2022/04/05 06:33:31;;;;;;;3.33;3.03;;;7.30;1.00;;;;;;5072054;28;20453;-58
2022/04/05 06:35:58;;;;;;;3.60;3.30;;;7.30;1.00;;;;;;5070338;28;20433;-57
2022/04/05 06:38:25;;;;;;;3.17;2.93;;;7.50;1.00;;;;;;5072055;28;20917;-57
2022/04/05 06:40:52;;;;;;;3.67;3.37;;;7.60;1.00;;;;;;5071549;28;20472;-57
2022/04/05 06:43:23;;;;;;;3.50;3.20;;;7.60;1.00;;;;;;5071044;28;20950;-57
2022/04/05 06:45:49;;;;;;;3.57;3.27;;;7.60;1.00;;;;;;5071112;28;20437;-59
2022/04/05 06:48:15;;;;;;;2.90;2.67;;;7.50;1.00;;;;;;5072920;28;20448;-59
2022/04/05 06:50:41;;;;;;;2.57;2.37;;;7.50;1.00;;;;;;5070916;28;20962;-57
2022/04/05 06:53:08;;;;;;;3.13;2.80;;;7.70;1.00;;;;;;5071676;28;20214;-56
2022/04/05 06:55:34;;;;;;;3.43;3.13;;;7.70;1.00;;;;;;5070976;28;20477;-57
2022/04/05 06:58:00;;;;;;;3.80;3.20;;;7.80;1.00;;;;;;5071867;28;20481;-57
2022/04/05 07:00:26;;;;;;;2.67;2.47;;;7.80;1.00;;;;;;5071803;28;20195;-57
2022/04/05 07:19:34;;;;;;;2.87;2.67;;;8.10;1.00;;;;;;4937621;28;1214980;-56
2022/04/05 07:22:01;;;;;;;2.70;2.50;;;8.10;1.00;;;;;;4986171;28;20449;-57
2022/04/05 07:24:27;;;;;;;3.33;3.03;;;8.30;1.00;;;;;;4985891;28;20198;-57
2022/04/05 07:26:54;;;;;;;3.10;2.90;;;8.40;1.00;;;;;;4985758;28;20465;-57
2022/04/05 07:29:20;;;;;;;3.60;3.30;;;8.50;1.00;;;;;;4985536;28;20482;-59
2022/04/05 07:31:45;;;;;;;5.37;4.00;;;8.50;1.00;;;;;;4966539;28;20916;-58
2022/04/05 07:34:11;;;;;;;3.40;3.10;;;8.60;1.00;;;;;;4966663;28;20481;-57
2022/04/05 08:03:01;;;;;;;3.63;3.33;;;9.10;1.00;;;;;;5122930;27;1227649;-57
2022/04/05 08:05:27;;;;;;;3.40;3.10;;;9.10;1.00;;;;;;5128674;28;20447;-57
2022/04/05 08:07:54;;;;;;;2.97;2.77;;;9.10;1.00;;;;;;5129000;27;20189;-56
2022/04/05 08:10:20;;;;;;;3.70;3.40;;;9.20;1.00;;;;;;5128534;27;20526;-56
2022/04/05 08:12:48;;;;;;;5.43;2.97;;;9.20;1.00;;;;;;5108810;27;20911;-57
2022/04/05 08:15:16;;;;;;;8.90;3.63;;;9.20;1.00;;;;;;5108167;28;20432;-56
2022/04/05 08:17:42;;;;;;;3.93;3.63;;;9.20;1.00;;;;;;5108330;28;20467;-57
2022/04/05 08:20:08;;;;;;;3.73;3.40;;;9.00;1.00;;;;;;5108094;28;20516;-56
2022/04/05 08:22:34;;;;;;;3.50;3.20;;;9.10;1.00;;;;;;5108160;28;20436;-57
2022/04/05 08:24:59;;;;;;;3.43;3.23;;;9.20;1.00;;;;;;5107986;28;20527;-58
2022/04/05 08:27:25;;;;;;;3.70;3.40;;;9.10;1.00;;;;;;5107755;28;20278;-56
2022/04/05 08:29:51;;;;;;;3.23;3.03;;;;;;;;;;5125780;28;20669;-57
2022/04/05 08:32:17;;;;;;;4.17;3.87;;;9.30;1.00;;;;;;5117785;28;20205;-57
2022/04/05 08:34:42;;;;;;;3.73;3.43;;;9.30;1.00;;;;;;5107908;28;20470;-58
2022/04/05 08:37:11;;;;;;;4.33;3.00;;;9.20;1.00;;;;;;5107760;28;20334;-57
2022/04/05 08:39:38;;;;;;;3.37;3.07;;;9.20;1.00;;;;;;5107939;28;20261;-58
2022/04/05 08:42:04;;;;;;;4.07;3.70;;;9.20;1.00;;;;;;5107621;28;20866;-56
2022/04/05 08:44:30;;;;;;;3.60;3.30;;;9.40;1.00;;;;;;5107494;28;20519;-57
2022/04/05 08:46:59;;;;;;;5.73;3.30;;;9.40;1.00;;;;;;5107601;28;20571;-58
2022/04/05 08:49:27;;;;;;;5.57;3.70;;;9.40;1.00;;;;;;5107359;28;20527;-57
2022/04/05 08:51:53;;;;;;;3.30;3.00;;;;;;;;;;5107227;28;20493;-57
2022/04/05 08:54:18;;;;;;;5.20;2.93;;;9.50;1.00;;;;;;5107161;28;20440;-56
2022/04/05 08:56:47;;;;;;;3.20;2.90;;;9.50;1.00;;;;;;5107303;28;20440;-58
2022/04/05 08:59:13;;;;;;;4.23;3.87;;;9.50;1.00;;;;;;5107284;28;20182;-57
2022/04/05 09:01:40;;;;;;;3.43;3.13;;;9.50;1.00;;;;;;5107611;28;20452;-57
2022/04/05 09:04:06;;;;;;;3.47;3.27;;;9.50;1.00;;;;;;5107113;28;20471;-60
2022/04/05 09:06:36;;;;;;;3.60;3.30;;;9.50;1.00;;;;;;5106922;28;20455;-58
2022/04/05 09:09:18;;;;;;;3.23;2.93;;;9.60;1.00;;;;;;5106903;28;20178;-57
2022/04/05 09:11:45;;;;;;;3.23;3.03;;;9.80;1.00;;;;;;5111331;28;20872;-56
2022/04/05 09:14:11;;;;;;;4.33;3.70;;;10.00;1.00;;;;;;5094607;28;20424;-60
2022/04/05 09:16:37;;;;;;;3.20;2.90;;;9.90;1.00;;;;;;5093292;28;20432;-57
2022/04/05 09:19:16;;;;;;;3.10;2.90;;;9.90;1.00;;;;;;5093118;28;20460;-56
2022/04/05 09:21:58;;;;;;;2.87;2.67;;;9.90;1.00;;;;;;5099141;28;20486;-57
2022/04/05 09:24:35;;;;;;;3.17;2.90;;;10.00;1.00;;;;;;5113416;28;20481;-57
2022/04/05 09:27:01;;;;;;;3.13;2.93;;;10.00;1.00;;;;;;5113679;28;20432;-57
2022/04/05 09:29:49;;;;;;;2.83;2.63;;;10.00;1.00;;;;;;5113367;28;20436;-56
2022/04/05 09:32:37;;;;;;;2.97;2.77;;;10.20;1.00;;;;;;5113397;28;20474;-57
2022/04/05 09:35:05;;;;;;;3.43;3.10;;;10.20;1.00;;;;;;5113451;28;20424;-57
2022/04/05 09:37:36;;;;;;;4.50;3.93;;;10.10;1.00;;;;;;5113030;28;20532;-57
2022/04/05 09:40:22;;;;;;;3.90;3.60;;;10.10;1.00;;;;;;5099631;27;20437;-58
2022/04/05 09:42:58;;;;;;;3.10;2.77;;;9.70;1.00;;;;;;5092824;28;20437;-58
2022/04/05 09:45:45;;;;;;;4.53;3.43;;;9.80;1.00;;;;;;5092710;28;20439;-61
2022/04/05 09:48:12;;;;;;;5.10;2.93;;;9.80;1.00;;;;;;5107822;28;20432;-58
2022/04/05 09:51:04;;;;;;;4.00;3.27;;;9.70;1.00;;;;;;5102776;28;20443;-59
2022/04/05 09:53:39;;;;;;;3.40;3.10;;;9.70;1.00;;;;;;5092501;28;20449;-58
2022/04/05 09:56:17;;;;;;;3.57;2.97;;;9.80;1.00;;;;;;5106109;28;20773;-59
2022/04/05 09:58:46;;;;;;;3.83;2.80;;;9.60;1.00;;;;;;5113009;28;20435;-58
2022/04/05 10:01:13;;;;;;;3.33;2.50;;;9.60;1.00;;;;;;5107455;28;20441;-58
2022/04/05 10:03:40;;;;;;;3.30;3.00;;;9.50;1.00;;;;;;5092127;28;20468;-57
2022/04/05 10:06:06;;;;;;;2.63;2.43;;;9.30;1.00;;;;;;5092651;28;20926;-55
2022/04/05 10:08:33;;;;;;;3.00;2.80;;;9.20;1.00;;;;;;5092417;28;21003;-57
2022/04/05 10:11:01;;;;;;;3.37;2.90;;;9.20;1.00;;;;;;5093848;28;21032;-58
2022/04/05 10:13:27;;;;;;;5.37;2.53;;;9.10;1.00;;;;;;5110851;28;20463;-57
2022/04/05 10:15:54;;;;;;;3.70;2.70;;;9.10;1.00;;;;;;5112524;28;20431;-57
2022/04/05 10:18:20;;;;;;;4.20;2.90;;;;;;;;;;5112367;28;20436;-57
2022/04/05 10:20:49;;;;;;;3.53;3.00;;;8.90;1.00;;;;;;5112430;28;20444;-58
2022/04/05 10:23:19;;;;;;;3.57;3.27;;;8.80;1.00;;;;;;5112905;28;20969;-58
2022/04/05 10:25:48;;;;;;;3.27;2.90;;;8.90;1.00;;;;;;5102932;28;20439;-58
2022/04/05 10:28:16;;;;;;;4.57;2.67;;;8.90;1.00;;;;;;5112340;28;20960;-57
2022/04/05 10:30:53;;;;;;;3.10;2.87;;;8.80;1.00;;;;;;5112265;28;20474;-57
2022/04/05 10:33:48;;;;;;;4.10;3.00;;;9.00;1.00;;;;;;5112524;28;20502;-56
2022/04/05 10:36:24;;;;;;;4.97;2.60;;;9.10;1.00;;;;;;5083529;28;20480;-57
2022/04/05 10:39:18;;;;;;;3.93;3.63;;;9.20;1.00;;;;;;5109294;28;20446;-58
2022/04/05 10:42:13;;;;;;;4.60;3.30;;;9.20;1.00;;;;;;5112160;28;20448;-59
2022/04/05 10:44:46;;;;;;;3.93;3.17;;;9.30;1.00;;;;;;5102838;28;20462;-59
2022/04/05 10:47:11;;;;;;;3.60;2.60;;;9.30;1.00;;;;;;5112495;28;20431;-56
2022/04/05 10:49:48;;;;;;;3.53;2.70;;;9.30;1.00;;;;;;5112051;28;20446;-57
2022/04/05 10:52:18;;;;;;;3.17;2.90;;;9.30;1.00;;;;;;5108651;28;20205;-57
2022/04/05 10:54:49;;;;;;;4.30;3.30;;;9.10;1.00;;;;;;5107912;28;20436;-57
2022/04/05 10:57:35;;;;;;;3.90;3.10;;;9.00;1.00;;;;;;5110303;28;20428;-58
2022/04/05 11:00:26;;;;;;;6.10;3.37;;;9.00;1.00;;;;;;5111888;28;20447;-58
2022/04/05 11:02:51;;;;;;;4.90;4.40;;;9.00;1.00;;;;;;5102306;28;20967;-59
2022/04/05 11:05:18;;;;;;;5.00;4.30;;;9.10;1.00;;;;;;5091740;28;20436;-58
2022/04/05 11:07:59;;;;;;;5.03;3.63;;;9.10;1.00;;;;;;5091349;28;20252;-57
2022/04/05 11:10:30;;;;;;;3.47;3.17;;;9.30;1.00;;;;;;5091497;28;20570;-58
2022/04/05 11:13:07;;;;;;;4.67;4.17;;;9.60;1.00;;;;;;5091736;28;20551;-58
2022/04/05 11:15:47;;;;;;;4.33;3.23;;;10.00;1.00;;;;;;5091646;28;20436;-60
2022/04/05 11:18:18;;;;;;;6.63;3.70;;;10.40;1.00;;;;;;5091289;28;20436;-59
2022/04/05 11:20:45;;;;;;;4.97;3.93;;;10.70;1.00;;;;;;5089956;28;20432;-57
2022/04/05 11:23:13;;;;;;;3.73;3.43;;;11.10;1.00;;;;;;5108035;28;20445;-58
2022/04/05 11:25:39;;;;;;;4.17;3.80;;;;;;;;;;5111286;28;20439;-57
2022/04/05 11:28:15;;;;;;;5.47;4.40;;;11.50;1.00;;;;;;5111045;28;20424;-57
2022/04/05 11:31:10;;;;;;;5.23;3.40;;;11.90;1.00;;;;;;5111696;28;20439;-56
2022/04/05 11:33:39;;;;;;;3.57;3.27;;;11.90;1.00;;;;;;5093765;28;20443;-59
2022/04/05 11:36:10;;;;;;;3.70;3.40;;;11.60;1.00;;;;;;5110631;28;20572;-58
2022/04/05 11:38:58;;;;;;;4.60;4.20;;;11.50;1.00;;;;;;5111263;28;20428;-58
2022/04/05 11:41:25;;;;;;;5.60;4.30;;;11.50;1.00;;;;;;5111014;28;20439;-57
2022/04/05 11:43:53;;;;;;;3.93;3.53;;;11.20;1.00;;;;;;5108659;28;20428;-61
2022/04/05 11:46:20;;;;;;;4.53;4.13;;;11.00;1.00;;;;;;5094347;28;20925;-56
2022/04/05 11:48:48;;;;;;;5.40;4.30;;;11.00;1.00;;;;;;5090921;28;20432;-58
2022/04/05 11:51:16;;;;;;;4.43;4.03;;;10.70;1.00;;;;;;5090343;28;20606;-58
2022/04/05 11:53:43;;;;;;;4.53;4.10;;;10.50;1.00;;;;;;5090639;28;20432;-58
2022/04/05 11:56:17;;;;;;;4.73;4.33;;;10.40;1.00;;;;;;5090627;28;20425;-57
2022/04/05 11:58:47;;;;;;;5.70;5.20;;;10.50;1.00;;;;;;5090595;28;20440;-56
2022/04/05 12:01:15;;;;;;;4.97;4.47;;;10.90;1.00;;;;;;5090639;28;20535;-58
2022/04/05 12:03:48;;;;;;;4.90;4.17;;;11.30;1.00;;;;;;5090496;28;20465;-57
2022/04/05 12:06:19;;;;;;;5.40;4.33;;;11.70;1.00;;;;;;5090424;28;20437;-58
2022/04/05 12:08:46;;;;;;;4.40;3.97;;;11.90;1.00;;;;;;5110173;28;20462;-57
2022/04/05 12:11:15;;;;;;;4.80;4.20;;;12.10;1.00;;;;;;5104166;28;20456;-58
2022/04/05 12:13:51;;;;;;;4.23;3.80;;;12.20;1.00;;;;;;5102208;28;20944;-59
2022/04/05 12:16:17;;;;;;;4.47;4.17;;;;;;;;;;5110581;28;20438;-57
2022/04/05 12:18:43;;;;;;;5.00;4.17;;;12.40;1.00;;;;;;5110287;28;20586;-57
2022/04/05 12:21:09;;;;;;;4.77;3.93;;;12.30;1.00;;;;;;5110587;28;20442;-57
2022/04/05 12:23:41;;;;;;;4.20;3.80;;;12.20;1.00;;;;;;5110276;28;20186;-57
2022/04/05 12:26:14;;;;;;;4.60;4.20;;;12.20;1.00;;;;;;5111019;28;20435;-59
2022/04/05 12:28:43;;;;;;;4.90;4.50;;;12.20;1.00;;;;;;5110347;28;20435;-57
2022/04/05 12:31:15;;;;;;;5.80;4.43;;;12.30;1.00;;;;;;5110618;28;20459;-57
2022/04/05 12:33:53;;;;;;;4.10;3.80;;;12.40;1.00;;;;;;5110439;28;20432;-57
2022/04/05 12:36:19;;;;;;;4.80;4.30;;;12.50;1.00;;;;;;5110756;28;20427;-58
2022/04/05 12:38:45;;;;;;;4.83;4.27;;;12.50;1.00;;;;;;5110505;28;20983;-58
2022/04/05 12:41:18;;;;;;;5.17;4.77;;;12.40;1.00;;;;;;5110433;28;20435;-59
2022/04/05 12:44:02;;;;;;;7.80;4.70;;;12.50;1.00;;;;;;5110231;28;20482;-58
2022/04/05 12:46:42;;;;;;;5.60;5.07;;;12.40;1.00;;;;;;5110636;28;21177;-59
2022/04/05 12:49:26;;;;;;;3.17;2.87;;;12.30;1.00;;;;;;5092861;28;20759;-56
2022/04/05 12:51:52;;;;;;;4.40;4.00;;;11.90;1.00;;;;;;5093769;28;20475;-58
2022/04/05 12:54:24;;;;;;;1.63;1.47;;;13.50;1.00;;;;;;5093964;28;20447;-56
2022/04/05 12:56:50;;;;;;;1.60;1.50;;;11.30;1.00;;;;;;5093425;28;20947;-57
2022/04/05 12:59:25;;;;;;;3.43;1.30;;;11.20;1.00;;;;;;5093590;28;20535;-58
2022/04/05 13:01:56;;;;;;;0.87;0.87;;;10.90;1.00;;;;;;5098456;28;20651;-56
2022/04/05 13:04:23;;;;;;;1.17;1.07;;;11.00;1.00;;;;;;5108023;28;20455;-58
2022/04/05 13:07:02;;;;;;;2.03;1.20;;;10.90;1.00;;;;;;5111313;28;20456;-56
2022/04/05 13:09:29;;;;;;;1.30;1.20;;;10.90;1.00;;;;;;5101769;28;20497;-58
2022/04/05 13:12:15;;;;;;;2.30;1.40;;;10.70;1.00;;;;;;5096699;28;20560;-57
2022/04/05 13:14:46;;;;;;;1.20;1.10;;;10.80;1.00;;;;;;5094250;28;20425;-59
2022/04/05 13:17:12;;;;;;;2.40;1.20;;;10.80;1.00;;;;;;5099751;28;20453;-57
2022/04/05 13:19:39;;;;;;;2.13;1.10;;;10.40;1.00;;;;;;5094921;28;20428;-58
2022/04/05 13:22:15;;;;;;;2.20;1.10;;;11.10;1.00;;;;;;5101664;28;20500;-58
2022/04/05 13:24:43;;;;;;;1.70;1.30;;;11.30;1.00;;;;;;5106592;28;20928;-58
2022/04/05 13:27:09;;;;;;;2.50;1.47;;;;;;;;;;5098733;28;20442;-57
2022/04/05 13:29:36;;;;;;;2.03;1.40;;;12.00;1.00;;;;;;5112084;28;20940;-58
2022/04/05 13:32:04;;;;;;;1.50;1.40;;;12.30;1.00;;;;;;5103505;28;20474;-58
2022/04/05 13:34:41;;;;;;;1.10;1.10;;;12.30;1.00;;;;;;5106549;28;20498;-59
2022/04/05 13:37:07;;;;;;;1.70;1.47;;;12.20;1.00;;;;;;5105012;28;20428;-58
2022/04/05 13:39:35;;;;;;;1.77;1.67;;;12.00;1.00;;;;;;5110664;28;20436;-59
2022/04/05 13:42:03;;;;;;;4.17;1.60;;;12.00;1.00;;;;;;5113171;28;20432;-58
2022/04/05 13:44:28;;;;;;;2.90;1.97;;;11.70;1.00;;;;;;5108730;27;20833;-58
2022/04/05 13:46:54;;;;;;;1.50;1.40;;;11.60;1.00;;;;;;5104209;28;20439;-57
2022/04/05 13:49:20;;;;;;;2.67;2.03;;;11.50;1.00;;;;;;5095064;28;20190;-58
2022/04/05 13:51:48;;;;;;;3.63;2.00;;;11.50;1.00;;;;;;5104831;28;20620;-59
2022/04/05 13:54:16;;;;;;;2.23;2.03;;;11.50;1.00;;;;;;5095850;28;20225;-58